sensor_id;sensor_type;location;lat;lon;timestamp;temperature;humidity
21592;DHT22;10958;50.892;3.992;2023-05-07T00:01:36;18.70;99.90
21592;DHT22;10958;50.892;3.992;2023-05-07T00:04:02;18.80;99.90
21592;DHT22;10958;50.892;3.992;2023-05-07T00:09:20;18.90;99.90
21592;DHT22;10958;50.892;3.992;2023-05-07T00:11:46;18.80;99.90
21592;DHT22;10958;50.892;3.992;2023-05-07T00:14:11;18.80;99.90
21592;DHT22;10958;50.892;3.992;2023-05-07T00:16:37;18.60;99.90
21592;DHT22;10958;50.892;3.992;2023-05-07T00:19:03;18.30;99.90
21592;DHT22;10958;50.892;3.992;2023-05-07T00:21:29;18.30;99.90
21592;DHT22;10958;50.892;3.992;2023-05-07T00:23:55;18.40;99.90
21592;DHT22;10958;50.892;3.992;2023-05-07T00:26:22;18.20;99.90
21592;DHT22;10958;50.892;3.992;2023-05-07T00:28:50;18.00;99.90
21592;DHT22;10958;50.892;3.992;2023-05-07T00:31:15;17.80;99.90
21592;DHT22;10958;50.892;3.992;2023-05-07T00:33:41;17.80;99.90
21592;DHT22;10958;50.892;3.992;2023-05-07T00:36:07;17.90;99.90
21592;DHT22;10958;50.892;3.992;2023-05-07T00:38:33;17.70;99.90
21592;DHT22;10958;50.892;3.992;2023-05-07T00:40:59;17.60;99.90
21592;DHT22;10958;50.892;3.992;2023-05-07T00:43:24;17.60;99.90
21592;DHT22;10958;50.892;3.992;2023-05-07T00:45:50;17.80;99.90
21592;DHT22;10958;50.892;3.992;2023-05-07T00:48:16;17.90;99.90
21592;DHT22;10958;50.892;3.992;2023-05-07T00:50:42;18.00;99.90
21592;DHT22;10958;50.892;3.992;2023-05-07T00:53:08;18.10;99.90
21592;DHT22;10958;50.892;3.992;2023-05-07T00:55:35;17.90;99.90
21592;DHT22;10958;50.892;3.992;2023-05-07T00:58:01;17.80;99.90
21592;DHT22;10958;50.892;3.992;2023-05-07T01:00:28;17.90;99.90
21592;DHT22;10958;50.892;3.992;2023-05-07T01:02:59;18.00;99.90
21592;DHT22;10958;50.892;3.992;2023-05-07T01:05:26;18.10;99.90
21592;DHT22;10958;50.892;3.992;2023-05-07T01:07:57;18.10;99.90
21592;DHT22;10958;50.892;3.992;2023-05-07T01:10:23;18.00;99.90
21592;DHT22;10958;50.892;3.992;2023-05-07T01:12:50;17.80;99.90
21592;DHT22;10958;50.892;3.992;2023-05-07T01:15:17;17.90;99.90
21592;DHT22;10958;50.892;3.992;2023-05-07T01:17:43;17.90;99.90
21592;DHT22;10958;50.892;3.992;2023-05-07T01:20:10;17.80;99.90
21592;DHT22;10958;50.892;3.992;2023-05-07T01:22:38;17.80;99.90
21592;DHT22;10958;50.892;3.992;2023-05-07T01:25:04;17.90;99.90
21592;DHT22;10958;50.892;3.992;2023-05-07T01:27:31;17.90;99.90
21592;DHT22;10958;50.892;3.992;2023-05-07T01:29:56;17.90;99.90
21592;DHT22;10958;50.892;3.992;2023-05-07T01:32:31;17.90;99.90
21592;DHT22;10958;50.892;3.992;2023-05-07T01:34:58;17.90;99.90
21592;DHT22;10958;50.892;3.992;2023-05-07T01:37:25;17.90;99.90
21592;DHT22;10958;50.892;3.992;2023-05-07T01:39:52;17.90;99.90
21592;DHT22;10958;50.892;3.992;2023-05-07T01:42:21;17.90;99.90
21592;DHT22;10958;50.892;3.992;2023-05-07T01:44:50;17.90;99.90
21592;DHT22;10958;50.892;3.992;2023-05-07T01:47:17;17.90;99.90
21592;DHT22;10958;50.892;3.992;2023-05-07T01:49:42;17.90;99.90
21592;DHT22;10958;50.892;3.992;2023-05-07T01:52:12;17.90;99.90
21592;DHT22;10958;50.892;3.992;2023-05-07T01:54:39;17.90;99.90
21592;DHT22;10958;50.892;3.992;2023-05-07T01:57:07;18.00;99.90
21592;DHT22;10958;50.892;3.992;2023-05-07T01:59:32;18.00;99.90
21592;DHT22;10958;50.892;3.992;2023-05-07T02:01:58;18.00;99.90
21592;DHT22;10958;50.892;3.992;2023-05-07T02:04:24;18.00;99.90
21592;DHT22;10958;50.892;3.992;2023-05-07T02:06:50;17.80;99.90
21592;DHT22;10958;50.892;3.992;2023-05-07T02:09:15;17.70;99.90
21592;DHT22;10958;50.892;3.992;2023-05-07T02:11:42;17.80;99.90
21592;DHT22;10958;50.892;3.992;2023-05-07T02:14:08;17.90;99.90
21592;DHT22;10958;50.892;3.992;2023-05-07T02:16:34;18.00;99.90
21592;DHT22;10958;50.892;3.992;2023-05-07T02:18:59;18.00;99.90
21592;DHT22;10958;50.892;3.992;2023-05-07T02:21:28;18.10;99.90
21592;DHT22;10958;50.892;3.992;2023-05-07T02:23:54;18.00;99.90
21592;DHT22;10958;50.892;3.992;2023-05-07T02:26:20;18.00;99.90
21592;DHT22;10958;50.892;3.992;2023-05-07T02:28:46;18.00;99.90
21592;DHT22;10958;50.892;3.992;2023-05-07T02:31:12;18.00;99.90
21592;DHT22;10958;50.892;3.992;2023-05-07T02:33:38;18.00;99.90
21592;DHT22;10958;50.892;3.992;2023-05-07T02:36:09;18.00;99.90
21592;DHT22;10958;50.892;3.992;2023-05-07T02:38:34;18.00;99.90
21592;DHT22;10958;50.892;3.992;2023-05-07T02:41:01;18.00;99.90
21592;DHT22;10958;50.892;3.992;2023-05-07T02:43:27;18.00;99.90
21592;DHT22;10958;50.892;3.992;2023-05-07T02:46:14;17.90;99.90
21592;DHT22;10958;50.892;3.992;2023-05-07T02:48:41;18.00;99.90
21592;DHT22;10958;50.892;3.992;2023-05-07T02:51:07;18.00;99.90
21592;DHT22;10958;50.892;3.992;2023-05-07T02:53:35;18.10;99.90
21592;DHT22;10958;50.892;3.992;2023-05-07T02:56:01;18.00;99.90
21592;DHT22;10958;50.892;3.992;2023-05-07T02:58:28;18.10;99.90
21592;DHT22;10958;50.892;3.992;2023-05-07T03:00:55;18.00;99.90
21592;DHT22;10958;50.892;3.992;2023-05-07T03:03:21;18.00;99.90
21592;DHT22;10958;50.892;3.992;2023-05-07T03:05:47;18.00;99.90
21592;DHT22;10958;50.892;3.992;2023-05-07T03:08:12;17.90;99.90
21592;DHT22;10958;50.892;3.992;2023-05-07T03:10:39;17.90;99.90
21592;DHT22;10958;50.892;3.992;2023-05-07T03:13:05;17.80;99.90
21592;DHT22;10958;50.892;3.992;2023-05-07T03:15:31;17.80;99.90
21592;DHT22;10958;50.892;3.992;2023-05-07T03:17:56;17.70;99.90
21592;DHT22;10958;50.892;3.992;2023-05-07T03:20:23;17.70;99.90
21592;DHT22;10958;50.892;3.992;2023-05-07T03:22:48;17.70;99.90
21592;DHT22;10958;50.892;3.992;2023-05-07T03:25:14;17.60;99.90
21592;DHT22;10958;50.892;3.992;2023-05-07T03:27:40;17.60;99.90
21592;DHT22;10958;50.892;3.992;2023-05-07T03:30:07;17.60;99.90
21592;DHT22;10958;50.892;3.992;2023-05-07T03:32:34;17.60;99.90
21592;DHT22;10958;50.892;3.992;2023-05-07T03:35:01;17.60;99.90
21592;DHT22;10958;50.892;3.992;2023-05-07T03:37:26;17.50;99.90
21592;DHT22;10958;50.892;3.992;2023-05-07T03:39:52;17.50;99.90
21592;DHT22;10958;50.892;3.992;2023-05-07T03:42:18;17.50;99.90
21592;DHT22;10958;50.892;3.992;2023-05-07T03:44:45;17.50;99.90
21592;DHT22;10958;50.892;3.992;2023-05-07T03:47:10;17.30;99.90
21592;DHT22;10958;50.892;3.992;2023-05-07T03:49:36;17.00;99.90
21592;DHT22;10958;50.892;3.992;2023-05-07T03:52:02;16.90;99.90
21592;DHT22;10958;50.892;3.992;2023-05-07T03:54:29;17.10;99.90
21592;DHT22;10958;50.892;3.992;2023-05-07T03:56:55;17.30;99.90
21592;DHT22;10958;50.892;3.992;2023-05-07T03:59:22;17.40;99.90
21592;DHT22;10958;50.892;3.992;2023-05-07T04:01:48;17.50;99.90
21592;DHT22;10958;50.892;3.992;2023-05-07T04:04:14;17.60;99.90
21592;DHT22;10958;50.892;3.992;2023-05-07T04:06:40;17.70;99.90
21592;DHT22;10958;50.892;3.992;2023-05-07T04:09:07;17.70;99.90
21592;DHT22;10958;50.892;3.992;2023-05-07T04:11:35;17.70;99.90
21592;DHT22;10958;50.892;3.992;2023-05-07T04:14:03;17.60;99.90
21592;DHT22;10958;50.892;3.992;2023-05-07T04:16:29;17.70;99.90
21592;DHT22;10958;50.892;3.992;2023-05-07T04:18:55;17.70;99.90
21592;DHT22;10958;50.892;3.992;2023-05-07T04:21:21;17.70;99.90
21592;DHT22;10958;50.892;3.992;2023-05-07T04:23:47;17.70;99.90
21592;DHT22;10958;50.892;3.992;2023-05-07T04:26:14;17.70;99.90
21592;DHT22;10958;50.892;3.992;2023-05-07T04:28:40;17.70;99.90
21592;DHT22;10958;50.892;3.992;2023-05-07T04:31:06;17.80;99.90
21592;DHT22;10958;50.892;3.992;2023-05-07T04:33:32;17.70;99.90
21592;DHT22;10958;50.892;3.992;2023-05-07T04:36:03;17.70;99.90
21592;DHT22;10958;50.892;3.992;2023-05-07T04:38:32;17.80;99.90
21592;DHT22;10958;50.892;3.992;2023-05-07T04:41:05;17.80;99.90
21592;DHT22;10958;50.892;3.992;2023-05-07T04:43:32;17.80;99.90
21592;DHT22;10958;50.892;3.992;2023-05-07T04:45:58;17.80;99.90
21592;DHT22;10958;50.892;3.992;2023-05-07T04:48:24;17.80;99.90
21592;DHT22;10958;50.892;3.992;2023-05-07T04:50:52;17.90;99.90
21592;DHT22;10958;50.892;3.992;2023-05-07T04:53:18;17.90;99.90
21592;DHT22;10958;50.892;3.992;2023-05-07T04:55:44;17.80;99.90
21592;DHT22;10958;50.892;3.992;2023-05-07T04:58:11;17.70;99.90
21592;DHT22;10958;50.892;3.992;2023-05-07T05:00:37;17.60;99.90
21592;DHT22;10958;50.892;3.992;2023-05-07T05:03:04;17.70;99.90
21592;DHT22;10958;50.892;3.992;2023-05-07T05:05:30;17.60;99.90
21592;DHT22;10958;50.892;3.992;2023-05-07T05:07:56;17.70;99.90
21592;DHT22;10958;50.892;3.992;2023-05-07T05:10:24;17.60;99.90
21592;DHT22;10958;50.892;3.992;2023-05-07T05:12:50;17.70;99.90
21592;DHT22;10958;50.892;3.992;2023-05-07T05:15:17;17.70;99.90
21592;DHT22;10958;50.892;3.992;2023-05-07T05:17:43;17.20;99.90
21592;DHT22;10958;50.892;3.992;2023-05-07T05:20:08;16.80;99.90
21592;DHT22;10958;50.892;3.992;2023-05-07T05:22:36;17.00;99.90
21592;DHT22;10958;50.892;3.992;2023-05-07T05:25:01;17.20;99.90
21592;DHT22;10958;50.892;3.992;2023-05-07T05:27:28;17.40;99.90
21592;DHT22;10958;50.892;3.992;2023-05-07T05:29:54;17.50;99.90
21592;DHT22;10958;50.892;3.992;2023-05-07T05:32:20;17.70;99.90
21592;DHT22;10958;50.892;3.992;2023-05-07T05:34:46;17.60;99.90
21592;DHT22;10958;50.892;3.992;2023-05-07T05:37:12;17.60;99.90
21592;DHT22;10958;50.892;3.992;2023-05-07T05:39:37;17.50;99.90
21592;DHT22;10958;50.892;3.992;2023-05-07T05:42:06;17.50;99.90
21592;DHT22;10958;50.892;3.992;2023-05-07T05:44:32;17.40;99.90
21592;DHT22;10958;50.892;3.992;2023-05-07T05:46:57;17.30;99.90
21592;DHT22;10958;50.892;3.992;2023-05-07T05:49:24;17.20;99.90
21592;DHT22;10958;50.892;3.992;2023-05-07T05:51:51;17.20;99.90
21592;DHT22;10958;50.892;3.992;2023-05-07T05:54:16;17.20;99.90
21592;DHT22;10958;50.892;3.992;2023-05-07T05:56:45;17.30;99.90
21592;DHT22;10958;50.892;3.992;2023-05-07T05:59:11;17.20;99.90
21592;DHT22;10958;50.892;3.992;2023-05-07T06:01:37;17.00;99.90
21592;DHT22;10958;50.892;3.992;2023-05-07T06:04:03;17.00;99.90
21592;DHT22;10958;50.892;3.992;2023-05-07T06:06:29;17.00;99.90
21592;DHT22;10958;50.892;3.992;2023-05-07T06:08:54;17.00;99.90
21592;DHT22;10958;50.892;3.992;2023-05-07T06:11:21;16.90;99.90
21592;DHT22;10958;50.892;3.992;2023-05-07T06:13:46;16.90;99.90
21592;DHT22;10958;50.892;3.992;2023-05-07T06:16:12;16.80;99.90
21592;DHT22;10958;50.892;3.992;2023-05-07T06:18:38;16.70;99.90
21592;DHT22;10958;50.892;3.992;2023-05-07T06:21:04;16.50;99.90
21592;DHT22;10958;50.892;3.992;2023-05-07T06:23:29;16.60;99.90
21592;DHT22;10958;50.892;3.992;2023-05-07T06:25:55;16.60;99.90
21592;DHT22;10958;50.892;3.992;2023-05-07T06:28:21;16.80;99.90
21592;DHT22;10958;50.892;3.992;2023-05-07T06:30:46;16.90;99.90
21592;DHT22;10958;50.892;3.992;2023-05-07T06:33:14;16.80;99.90
21592;DHT22;10958;50.892;3.992;2023-05-07T06:35:40;16.60;99.90
21592;DHT22;10958;50.892;3.992;2023-05-07T06:38:06;16.70;99.90
21592;DHT22;10958;50.892;3.992;2023-05-07T06:40:31;16.80;99.90
21592;DHT22;10958;50.892;3.992;2023-05-07T06:42:57;16.80;99.90
21592;DHT22;10958;50.892;3.992;2023-05-07T06:45:22;16.90;99.90
21592;DHT22;10958;50.892;3.992;2023-05-07T06:47:49;17.00;99.90
21592;DHT22;10958;50.892;3.992;2023-05-07T06:50:14;17.10;99.90
21592;DHT22;10958;50.892;3.992;2023-05-07T06:52:44;17.00;99.90
21592;DHT22;10958;50.892;3.992;2023-05-07T06:55:10;17.10;99.90
21592;DHT22;10958;50.892;3.992;2023-05-07T06:57:38;17.20;99.90
21592;DHT22;10958;50.892;3.992;2023-05-07T07:00:05;17.40;99.90
21592;DHT22;10958;50.892;3.992;2023-05-07T07:02:32;17.50;99.90
21592;DHT22;10958;50.892;3.992;2023-05-07T07:04:58;17.50;99.90
21592;DHT22;10958;50.892;3.992;2023-05-07T07:07:24;17.60;99.90
21592;DHT22;10958;50.892;3.992;2023-05-07T07:09:50;17.70;99.90
21592;DHT22;10958;50.892;3.992;2023-05-07T07:12:16;17.70;99.90
21592;DHT22;10958;50.892;3.992;2023-05-07T07:14:44;17.60;99.90
21592;DHT22;10958;50.892;3.992;2023-05-07T07:17:10;17.60;99.90
21592;DHT22;10958;50.892;3.992;2023-05-07T07:19:35;17.80;99.90
21592;DHT22;10958;50.892;3.992;2023-05-07T07:22:02;17.90;99.90
21592;DHT22;10958;50.892;3.992;2023-05-07T07:24:28;17.50;99.90
21592;DHT22;10958;50.892;3.992;2023-05-07T07:26:53;17.40;99.90
21592;DHT22;10958;50.892;3.992;2023-05-07T07:29:25;17.70;99.90
21592;DHT22;10958;50.892;3.992;2023-05-07T07:31:52;17.90;99.90
21592;DHT22;10958;50.892;3.992;2023-05-07T07:34:20;18.10;99.90
21592;DHT22;10958;50.892;3.992;2023-05-07T07:36:48;18.30;99.90
21592;DHT22;10958;50.892;3.992;2023-05-07T07:39:13;18.10;99.90
21592;DHT22;10958;50.892;3.992;2023-05-07T07:41:44;18.00;99.90
21592;DHT22;10958;50.892;3.992;2023-05-07T07:44:10;17.90;99.90
21592;DHT22;10958;50.892;3.992;2023-05-07T07:46:38;17.70;99.90
21592;DHT22;10958;50.892;3.992;2023-05-07T07:49:03;17.90;99.90
21592;DHT22;10958;50.892;3.992;2023-05-07T07:51:29;18.10;99.90
21592;DHT22;10958;50.892;3.992;2023-05-07T07:53:55;18.00;99.90
21592;DHT22;10958;50.892;3.992;2023-05-07T07:56:24;18.20;99.90
21592;DHT22;10958;50.892;3.992;2023-05-07T07:58:52;18.30;99.90
21592;DHT22;10958;50.892;3.992;2023-05-07T08:01:21;18.50;99.90
21592;DHT22;10958;50.892;3.992;2023-05-07T08:03:46;18.70;99.90
21592;DHT22;10958;50.892;3.992;2023-05-07T08:06:12;18.80;99.90
21592;DHT22;10958;50.892;3.992;2023-05-07T08:08:38;18.80;99.90
21592;DHT22;10958;50.892;3.992;2023-05-07T08:11:03;18.90;99.90
21592;DHT22;10958;50.892;3.992;2023-05-07T08:13:34;19.00;99.90
21592;DHT22;10958;50.892;3.992;2023-05-07T08:16:00;19.00;99.90
21592;DHT22;10958;50.892;3.992;2023-05-07T08:18:25;19.00;99.90
21592;DHT22;10958;50.892;3.992;2023-05-07T08:20:52;18.90;99.90
21592;DHT22;10958;50.892;3.992;2023-05-07T08:23:17;18.90;99.90
21592;DHT22;10958;50.892;3.992;2023-05-07T08:25:43;18.70;99.90
21592;DHT22;10958;50.892;3.992;2023-05-07T08:28:09;18.60;99.90
21592;DHT22;10958;50.892;3.992;2023-05-07T08:30:35;18.50;99.90
21592;DHT22;10958;50.892;3.992;2023-05-07T08:33:03;18.50;99.90
21592;DHT22;10958;50.892;3.992;2023-05-07T08:35:29;18.50;99.90
21592;DHT22;10958;50.892;3.992;2023-05-07T08:37:55;18.50;99.90
21592;DHT22;10958;50.892;3.992;2023-05-07T08:40:25;18.50;99.90
21592;DHT22;10958;50.892;3.992;2023-05-07T08:42:52;18.30;99.90
21592;DHT22;10958;50.892;3.992;2023-05-07T08:45:19;18.30;99.90
21592;DHT22;10958;50.892;3.992;2023-05-07T08:47:52;18.30;99.90
21592;DHT22;10958;50.892;3.992;2023-05-07T08:50:20;18.40;99.90
21592;DHT22;10958;50.892;3.992;2023-05-07T08:52:47;18.40;99.90
21592;DHT22;10958;50.892;3.992;2023-05-07T08:55:22;18.40;99.90
21592;DHT22;10958;50.892;3.992;2023-05-07T08:57:48;18.40;99.90
21592;DHT22;10958;50.892;3.992;2023-05-07T09:00:15;18.40;99.90
21592;DHT22;10958;50.892;3.992;2023-05-07T09:02:50;18.60;99.90
21592;DHT22;10958;50.892;3.992;2023-05-07T09:05:15;18.60;99.90
21592;DHT22;10958;50.892;3.992;2023-05-07T09:07:43;18.70;99.90
21592;DHT22;10958;50.892;3.992;2023-05-07T09:10:09;18.80;99.90
21592;DHT22;10958;50.892;3.992;2023-05-07T09:12:35;18.70;99.90
21592;DHT22;10958;50.892;3.992;2023-05-07T09:15:01;18.80;99.90
21592;DHT22;10958;50.892;3.992;2023-05-07T09:17:28;18.80;99.90
21592;DHT22;10958;50.892;3.992;2023-05-07T09:20:07;18.80;99.90
21592;DHT22;10958;50.892;3.992;2023-05-07T09:22:36;18.70;99.90
21592;DHT22;10958;50.892;3.992;2023-05-07T09:25:01;18.70;99.90
21592;DHT22;10958;50.892;3.992;2023-05-07T09:27:27;18.80;99.90
21592;DHT22;10958;50.892;3.992;2023-05-07T09:29:53;18.80;99.90
21592;DHT22;10958;50.892;3.992;2023-05-07T09:32:20;18.80;99.90
21592;DHT22;10958;50.892;3.992;2023-05-07T09:34:46;18.80;99.90
21592;DHT22;10958;50.892;3.992;2023-05-07T09:37:13;18.70;99.90
21592;DHT22;10958;50.892;3.992;2023-05-07T09:39:48;18.80;99.90
21592;DHT22;10958;50.892;3.992;2023-05-07T09:42:15;18.80;99.90
21592;DHT22;10958;50.892;3.992;2023-05-07T09:44:43;18.60;99.90
21592;DHT22;10958;50.892;3.992;2023-05-07T09:47:10;18.60;99.90
21592;DHT22;10958;50.892;3.992;2023-05-07T09:49:38;18.50;99.90
21592;DHT22;10958;50.892;3.992;2023-05-07T09:52:06;18.50;99.90
21592;DHT22;10958;50.892;3.992;2023-05-07T09:54:35;18.70;99.90
21592;DHT22;10958;50.892;3.992;2023-05-07T09:57:03;18.80;99.90
21592;DHT22;10958;50.892;3.992;2023-05-07T09:59:33;18.90;99.90
21592;DHT22;10958;50.892;3.992;2023-05-07T10:02:01;18.90;99.90
21592;DHT22;10958;50.892;3.992;2023-05-07T10:04:27;18.90;99.90
21592;DHT22;10958;50.892;3.992;2023-05-07T10:07:03;18.90;99.90
21592;DHT22;10958;50.892;3.992;2023-05-07T10:12:26;19.10;99.90
21592;DHT22;10958;50.892;3.992;2023-05-07T10:14:54;18.90;99.90
21592;DHT22;10958;50.892;3.992;2023-05-07T10:17:23;18.90;99.90
21592;DHT22;10958;50.892;3.992;2023-05-07T10:19:50;19.00;99.90
21592;DHT22;10958;50.892;3.992;2023-05-07T10:22:18;19.20;99.90
21592;DHT22;10958;50.892;3.992;2023-05-07T10:24:48;19.40;99.90
21592;DHT22;10958;50.892;3.992;2023-05-07T10:27:23;19.30;99.90
21592;DHT22;10958;50.892;3.992;2023-05-07T10:30:03;19.50;99.90
21592;DHT22;10958;50.892;3.992;2023-05-07T10:32:43;19.60;99.90
21592;DHT22;10958;50.892;3.992;2023-05-07T10:35:17;19.70;99.90
21592;DHT22;10958;50.892;3.992;2023-05-07T10:37:45;19.90;99.90
21592;DHT22;10958;50.892;3.992;2023-05-07T10:40:11;19.90;99.90
21592;DHT22;10958;50.892;3.992;2023-05-07T10:42:38;19.80;99.90
21592;DHT22;10958;50.892;3.992;2023-05-07T10:45:17;19.80;99.90
21592;DHT22;10958;50.892;3.992;2023-05-07T10:50:36;19.90;99.90
21592;DHT22;10958;50.892;3.992;2023-05-07T10:53:22;19.90;99.90
21592;DHT22;10958;50.892;3.992;2023-05-07T10:58:37;19.70;99.90
21592;DHT22;10958;50.892;3.992;2023-05-07T11:01:03;19.80;99.90
21592;DHT22;10958;50.892;3.992;2023-05-07T11:03:29;19.90;99.90
21592;DHT22;10958;50.892;3.992;2023-05-07T11:09:11;20.10;99.90
21592;DHT22;10958;50.892;3.992;2023-05-07T11:11:48;20.20;99.90
21592;DHT22;10958;50.892;3.992;2023-05-07T11:14:43;20.20;99.90
21592;DHT22;10958;50.892;3.992;2023-05-07T11:17:12;20.30;99.90
21592;DHT22;10958;50.892;3.992;2023-05-07T11:19:55;20.60;99.90
21592;DHT22;10958;50.892;3.992;2023-05-07T11:23:01;20.90;99.90
21592;DHT22;10958;50.892;3.992;2023-05-07T11:25:29;20.60;99.90
21592;DHT22;10958;50.892;3.992;2023-05-07T11:27:55;20.40;99.90
21592;DHT22;10958;50.892;3.992;2023-05-07T11:30:21;20.50;99.90
21592;DHT22;10958;50.892;3.992;2023-05-07T11:32:48;20.40;99.90
21592;DHT22;10958;50.892;3.992;2023-05-07T11:35:19;20.60;99.90
21592;DHT22;10958;50.892;3.992;2023-05-07T11:37:48;20.80;99.90
21592;DHT22;10958;50.892;3.992;2023-05-07T11:40:14;20.80;99.90
21592;DHT22;10958;50.892;3.992;2023-05-07T11:42:42;20.90;99.90
21592;DHT22;10958;50.892;3.992;2023-05-07T11:45:11;21.10;99.90
21592;DHT22;10958;50.892;3.992;2023-05-07T11:47:37;21.10;99.90
21592;DHT22;10958;50.892;3.992;2023-05-07T11:50:05;20.30;99.90
21592;DHT22;10958;50.892;3.992;2023-05-07T11:52:31;20.40;99.90
21592;DHT22;10958;50.892;3.992;2023-05-07T11:54:58;20.50;99.90
21592;DHT22;10958;50.892;3.992;2023-05-07T11:57:26;20.30;99.90
21592;DHT22;10958;50.892;3.992;2023-05-07T11:59:53;19.90;99.90
21592;DHT22;10958;50.892;3.992;2023-05-07T12:02:22;19.90;99.90
21592;DHT22;10958;50.892;3.992;2023-05-07T12:08:31;20.00;99.90
21592;DHT22;10958;50.892;3.992;2023-05-07T12:10:57;20.00;99.90
21592;DHT22;10958;50.892;3.992;2023-05-07T12:13:26;20.00;99.90
21592;DHT22;10958;50.892;3.992;2023-05-07T12:15:52;20.00;99.90
21592;DHT22;10958;50.892;3.992;2023-05-07T12:18:19;20.00;99.90
21592;DHT22;10958;50.892;3.992;2023-05-07T12:20:46;19.80;99.90
21592;DHT22;10958;50.892;3.992;2023-05-07T12:23:12;19.70;99.90
21592;DHT22;10958;50.892;3.992;2023-05-07T12:25:39;19.80;99.90
21592;DHT22;10958;50.892;3.992;2023-05-07T12:28:07;19.90;99.90
21592;DHT22;10958;50.892;3.992;2023-05-07T12:30:40;20.10;99.90
21592;DHT22;10958;50.892;3.992;2023-05-07T12:33:06;20.10;99.90
21592;DHT22;10958;50.892;3.992;2023-05-07T12:35:36;20.10;99.90
21592;DHT22;10958;50.892;3.992;2023-05-07T12:38:08;20.10;99.90
21592;DHT22;10958;50.892;3.992;2023-05-07T12:40:44;20.10;99.90
21592;DHT22;10958;50.892;3.992;2023-05-07T12:43:29;20.00;99.90
21592;DHT22;10958;50.892;3.992;2023-05-07T12:45:57;20.10;99.90
21592;DHT22;10958;50.892;3.992;2023-05-07T12:48:24;20.20;99.90
21592;DHT22;10958;50.892;3.992;2023-05-07T12:50:56;19.90;99.90
21592;DHT22;10958;50.892;3.992;2023-05-07T12:53:24;20.10;99.90
21592;DHT22;10958;50.892;3.992;2023-05-07T12:55:59;20.20;99.90
21592;DHT22;10958;50.892;3.992;2023-05-07T12:58:29;20.20;99.90
21592;DHT22;10958;50.892;3.992;2023-05-07T13:00:58;20.30;99.90
21592;DHT22;10958;50.892;3.992;2023-05-07T13:03:31;20.50;99.90
21592;DHT22;10958;50.892;3.992;2023-05-07T13:06:03;20.80;99.90
21592;DHT22;10958;50.892;3.992;2023-05-07T13:08:34;21.00;99.90
21592;DHT22;10958;50.892;3.992;2023-05-07T13:11:01;20.90;99.90
21592;DHT22;10958;50.892;3.992;2023-05-07T13:13:30;21.00;99.90
21592;DHT22;10958;50.892;3.992;2023-05-07T13:15:58;21.20;99.90
21592;DHT22;10958;50.892;3.992;2023-05-07T13:18:27;21.30;99.90
21592;DHT22;10958;50.892;3.992;2023-05-07T13:20:55;21.60;99.90
21592;DHT22;10958;50.892;3.992;2023-05-07T13:23:23;21.50;99.90
21592;DHT22;10958;50.892;3.992;2023-05-07T13:25:49;21.60;99.90
21592;DHT22;10958;50.892;3.992;2023-05-07T13:28:16;21.60;99.90
21592;DHT22;10958;50.892;3.992;2023-05-07T13:30:42;21.60;99.90
21592;DHT22;10958;50.892;3.992;2023-05-07T13:33:09;21.70;99.90
21592;DHT22;10958;50.892;3.992;2023-05-07T13:35:35;21.80;99.90
21592;DHT22;10958;50.892;3.992;2023-05-07T13:38:01;21.50;99.90
21592;DHT22;10958;50.892;3.992;2023-05-07T13:40:30;21.70;99.90
21592;DHT22;10958;50.892;3.992;2023-05-07T13:42:58;21.90;99.90
21592;DHT22;10958;50.892;3.992;2023-05-07T13:45:24;21.90;99.90
21592;DHT22;10958;50.892;3.992;2023-05-07T13:47:51;21.70;99.90
21592;DHT22;10958;50.892;3.992;2023-05-07T13:50:19;21.60;99.90
21592;DHT22;10958;50.892;3.992;2023-05-07T13:52:46;21.60;99.90
21592;DHT22;10958;50.892;3.992;2023-05-07T13:55:21;21.70;99.90
21592;DHT22;10958;50.892;3.992;2023-05-07T13:57:47;21.90;99.90
21592;DHT22;10958;50.892;3.992;2023-05-07T14:00:14;22.00;99.90
21592;DHT22;10958;50.892;3.992;2023-05-07T14:02:43;22.00;99.90
21592;DHT22;10958;50.892;3.992;2023-05-07T14:05:09;22.00;99.90
21592;DHT22;10958;50.892;3.992;2023-05-07T14:07:38;21.90;99.90
21592;DHT22;10958;50.892;3.992;2023-05-07T14:10:04;21.90;99.90
21592;DHT22;10958;50.892;3.992;2023-05-07T14:12:30;21.70;99.90
21592;DHT22;10958;50.892;3.992;2023-05-07T14:14:58;21.90;99.90
21592;DHT22;10958;50.892;3.992;2023-05-07T14:17:24;21.90;99.90
21592;DHT22;10958;50.892;3.992;2023-05-07T14:19:57;21.70;99.90
21592;DHT22;10958;50.892;3.992;2023-05-07T14:22:23;21.70;99.90
21592;DHT22;10958;50.892;3.992;2023-05-07T14:24:49;21.80;99.90
21592;DHT22;10958;50.892;3.992;2023-05-07T14:27:15;21.90;99.90
21592;DHT22;10958;50.892;3.992;2023-05-07T14:29:42;21.90;99.90
21592;DHT22;10958;50.892;3.992;2023-05-07T14:32:08;22.10;99.90
21592;DHT22;10958;50.892;3.992;2023-05-07T14:34:34;22.20;99.90
21592;DHT22;10958;50.892;3.992;2023-05-07T14:37:00;22.30;99.90
21592;DHT22;10958;50.892;3.992;2023-05-07T14:39:26;22.00;99.90
21592;DHT22;10958;50.892;3.992;2023-05-07T14:41:52;22.00;99.90
21592;DHT22;10958;50.892;3.992;2023-05-07T14:44:20;22.10;99.90
21592;DHT22;10958;50.892;3.992;2023-05-07T14:46:46;22.10;99.90
21592;DHT22;10958;50.892;3.992;2023-05-07T14:49:13;22.00;99.90
21592;DHT22;10958;50.892;3.992;2023-05-07T14:51:43;21.80;99.90
21592;DHT22;10958;50.892;3.992;2023-05-07T14:54:09;21.70;99.90
21592;DHT22;10958;50.892;3.992;2023-05-07T14:56:35;21.80;99.90
21592;DHT22;10958;50.892;3.992;2023-05-07T14:59:02;22.10;99.90
21592;DHT22;10958;50.892;3.992;2023-05-07T15:01:28;22.30;99.90
21592;DHT22;10958;50.892;3.992;2023-05-07T15:03:54;22.40;99.90
21592;DHT22;10958;50.892;3.992;2023-05-07T15:06:21;22.60;99.90
21592;DHT22;10958;50.892;3.992;2023-05-07T15:08:47;22.60;99.90
21592;DHT22;10958;50.892;3.992;2023-05-07T15:11:14;22.60;99.90
21592;DHT22;10958;50.892;3.992;2023-05-07T15:13:42;22.70;99.90
21592;DHT22;10958;50.892;3.992;2023-05-07T15:16:07;22.60;99.90
21592;DHT22;10958;50.892;3.992;2023-05-07T15:18:33;22.60;99.90
21592;DHT22;10958;50.892;3.992;2023-05-07T15:20:59;22.60;99.90
21592;DHT22;10958;50.892;3.992;2023-05-07T15:23:25;22.70;99.90
21592;DHT22;10958;50.892;3.992;2023-05-07T15:25:52;22.60;99.90
21592;DHT22;10958;50.892;3.992;2023-05-07T15:28:17;22.40;99.90
21592;DHT22;10958;50.892;3.992;2023-05-07T15:30:43;22.40;99.90
21592;DHT22;10958;50.892;3.992;2023-05-07T15:33:12;22.30;99.90
21592;DHT22;10958;50.892;3.992;2023-05-07T15:35:37;22.30;99.90
21592;DHT22;10958;50.892;3.992;2023-05-07T15:38:05;22.40;99.90
21592;DHT22;10958;50.892;3.992;2023-05-07T15:40:31;22.30;99.90
21592;DHT22;10958;50.892;3.992;2023-05-07T15:42:57;22.30;99.90
21592;DHT22;10958;50.892;3.992;2023-05-07T15:45:24;22.20;99.90
21592;DHT22;10958;50.892;3.992;2023-05-07T15:47:49;22.20;99.90
21592;DHT22;10958;50.892;3.992;2023-05-07T15:50:15;22.00;99.90